Сообщение об ошибке

  • Warning: ini_set(): Headers already sent. You cannot change the session module's ini settings at this time in drupal_environment_initialize() (line 699 of /home/a/auditpro/2.auditpro.beget.tech/public_html/st/includes/bootstrap.inc).
  • Warning: ini_set(): Headers already sent. You cannot change the session module's ini settings at this time in drupal_environment_initialize() (line 700 of /home/a/auditpro/2.auditpro.beget.tech/public_html/st/includes/bootstrap.inc).
  • Warning: ini_set(): Headers already sent. You cannot change the session module's ini settings at this time in drupal_environment_initialize() (line 701 of /home/a/auditpro/2.auditpro.beget.tech/public_html/st/includes/bootstrap.inc).
  • Warning: ini_set(): Headers already sent. You cannot change the session module's ini settings at this time in drupal_environment_initialize() (line 704 of /home/a/auditpro/2.auditpro.beget.tech/public_html/st/includes/bootstrap.inc).
  • Warning: ini_set(): Headers already sent. You cannot change the session module's ini settings at this time in drupal_environment_initialize() (line 706 of /home/a/auditpro/2.auditpro.beget.tech/public_html/st/includes/bootstrap.inc).
  • Warning: ini_set(): Headers already sent. You cannot change the session module's ini settings at this time in include_once() (line 290 of /home/a/auditpro/2.auditpro.beget.tech/public_html/st/sites/default/settings.php).
  • Warning: ini_set(): Headers already sent. You cannot change the session module's ini settings at this time in include_once() (line 291 of /home/a/auditpro/2.auditpro.beget.tech/public_html/st/sites/default/settings.php).
  • Warning: ini_set(): Headers already sent. You cannot change the session module's ini settings at this time in include_once() (line 299 of /home/a/auditpro/2.auditpro.beget.tech/public_html/st/sites/default/settings.php).
  • Warning: ini_set(): Headers already sent. You cannot change the session module's ini settings at this time in include_once() (line 306 of /home/a/auditpro/2.auditpro.beget.tech/public_html/st/sites/default/settings.php).
  • Warning: ini_set(): Headers already sent. You cannot change the session module's ini settings at this time in drupal_settings_initialize() (line 826 of /home/a/auditpro/2.auditpro.beget.tech/public_html/st/includes/bootstrap.inc).
  • Warning: ini_set(): Headers already sent. You cannot change the session module's ini settings at this time in drupal_settings_initialize() (line 835 of /home/a/auditpro/2.auditpro.beget.tech/public_html/st/includes/bootstrap.inc).
  • Warning: session_name(): Cannot change session name when headers already sent in drupal_settings_initialize() (line 838 of /home/a/auditpro/2.auditpro.beget.tech/public_html/st/includes/bootstrap.inc).

Кабанск

СКИДКИ НА СМАРТФОНЫ!

Карта отелей и гостиниц, располагающихся рядом с аэропортом Кабанск :

Кабанск Бурятия 52° 2' 3.66" N, 106° 41' 19.2012" E
Код аэродрома ИКАО
UIUX
Код аэродрома RU
УИУЬ
Координаты
N52.03435° E106.68867°
Превышение над уровнем моря
470
Основная полоса
11/29
Курс магнитный
110,9/290,9
Длина основной ВПП
735
Ширина основной ВПП
60
Покрытие основной ВПП
Нетвёрдое (грунт)
Освещение ВПП
Нет
Тип: 
Аэродром
Класс аэродрома: 
Принадлежность: 
ГА
Статус: 
Действующий
Сайт: 
E-mail аэродрома: 
Страна: 
Россия
Регион: 
Бурятия
Город: 
Дополнительная информация: 
Горный. Оператор: нет данных.

Скидки на навигаторы!

Найти трансфер

С помощью этой формы Вы можете найти трансфер из аэропорта Кабанск в город, аэропорт или вокзал:

Погода в аэропортах:

Авиационная погода в Ургенче

Регион: 
Погода METAR: 
UTNU 301930Z 08004KT 4200 BR NSC 01/M07 Q1018 R31/CLRD70 NOSIG
Время наблюдения
2023-01-30T19:30:00Z
Температура C
1.0
Точка росы
-7.0
Направление ветра
80
Скорость ветра (узлы)
4
Метео видимость
2.61
Облачность
CLR
Нижняя граница облачности (футы)
Явления погоды
BR
Условия полета
IFR
CLR — нет облаков ниже 3000 м
BR – дымка (видимость от 1 до 9 км);

Авиационная погода в Грозном

Регион: 
Погода METAR: 
URMG 301930Z 03001MPS 4500 BR NSC 00/M01 Q1014 R08/090070 TEMPO 0300 FZFG OVC002 RMK QFE746/0995
Время наблюдения
2023-01-30T19:30:00Z
Температура C
0.0
Точка росы
-1.0
Направление ветра
30
Скорость ветра (узлы)
2
Метео видимость
2.8
Облачность
CLR
Нижняя граница облачности (футы)
Явления погоды
BR
Условия полета
IFR
Аэропорт подробнее: 
CLR — нет облаков ниже 3000 м
BR – дымка (видимость от 1 до 9 км);

Авиационная погода в Гомеле

Регион: 
Погода METAR: 
UMGG 301930Z 20006G09MPS 2800 -SHSN BLSN SCT009 OVC016CB M01/M02 Q1000 TEMPO 2000 SHSN
Время наблюдения
2023-01-30T19:30:00Z
Температура C
-1.0
Точка росы
-2.0
Направление ветра
200
Скорость ветра (узлы)
12
Метео видимость
1.74
Облачность
SCT
OVC
Нижняя граница облачности (футы)
900
1600
Явления погоды
-SHSN BLSN
Условия полета
IFR
Аэропорт подробнее: 
SCT – разбросанная отдельная облачность; OVC – сплошная облачность;
-SHSN - слабый ливневой снег, BLSN – метель низовая или общая;

Авиационная погода в Перми

Регион: 
Погода METAR: 
USPP 301930Z 20004MPS 9000 -SN BKN017 M07/M10 Q1010 R21/490340 NOSIG RMK QFE747
Время наблюдения
2023-01-30T19:30:00Z
Температура C
-7.0
Точка росы
-10.0
Направление ветра
200
Скорость ветра (узлы)
8
Метео видимость
5.59
Облачность
BKN
Нижняя граница облачности (футы)
1700
Явления погоды
-SN
Условия полета
MVFR
Аэропорт подробнее: 
BKN – значительная (рассеянная, разорванная) облачность;
-SN – слабый снег;